createdAt,value
2022-11-06T00:00:11.550Z,79.25
2022-11-06T00:05:51.170Z,57.38
2022-11-06T00:10:53.614Z,68.00
2022-11-06T00:15:56.513Z,67.35
2022-11-06T00:20:59.161Z,69.88
2022-11-06T00:26:01.411Z,57.00
2022-11-06T00:31:10.619Z,45.00
2022-11-06T00:36:23.516Z,40.20
2022-11-06T00:41:28.910Z,29.55
2022-11-06T00:46:32.434Z,30.80
2022-11-06T00:51:39.478Z,27.95
2022-11-06T00:56:42.083Z,34.13
2022-11-06T01:01:45.685Z,26.73
2022-11-06T01:06:50.413Z,31.83
2022-11-06T01:12:13.344Z,35.28
2022-11-06T01:17:16.414Z,39.33
2022-11-06T01:22:18.647Z,34.92
2022-11-06T01:27:27.552Z,35.60
2022-11-06T01:32:29.980Z,39.30
2022-11-06T01:37:32.535Z,38.95
2022-11-06T01:42:34.846Z,40.17
2022-11-06T01:47:37.590Z,41.03
2022-11-06T01:52:42.887Z,47.25
2022-11-06T01:57:45.723Z,39.60
2022-11-06T02:02:48.769Z,39.77
2022-11-06T02:07:52.272Z,35.55
2022-11-06T02:13:16.004Z,32.30
2022-11-06T02:18:40.344Z,33.85
2022-11-06T02:23:50.762Z,24.40
2022-11-06T02:29:02.162Z,19.98
2022-11-06T02:34:12.600Z,16.25
2022-11-06T02:39:19.771Z,17.35
2022-11-06T02:44:25.058Z,14.93
2022-11-06T02:49:44.559Z,21.42
2022-11-06T02:54:51.777Z,19.20
2022-11-06T03:00:02.965Z,17.83
2022-11-06T03:05:17.624Z,15.80
2022-11-06T03:10:20.611Z,16.98
2022-11-06T03:15:39.156Z,20.93
2022-11-06T03:20:58.788Z,18.05
2022-11-06T03:26:08.729Z,19.20
2022-11-06T03:31:15.454Z,17.50
2022-11-06T03:36:25.176Z,22.30
2022-11-06T03:41:33.779Z,22.55
2022-11-06T03:46:38.757Z,19.95
2022-11-06T03:51:51.322Z,19.65
2022-11-06T03:57:01.856Z,19.38
2022-11-06T04:02:04.485Z,19.88
2022-11-06T04:07:13.400Z,20.08
2022-11-06T04:12:38.922Z,19.35
2022-11-06T04:17:41.448Z,16.40
2022-11-06T04:22:50.306Z,19.92
2022-11-06T04:28:05.148Z,18.83
2022-11-06T04:33:27.195Z,15.93
2022-11-06T04:38:48.362Z,18.65
2022-11-06T04:43:58.916Z,15.65
2022-11-06T04:49:03.210Z,17.60
2022-11-06T04:54:07.396Z,15.98
2022-11-06T04:59:12.880Z,17.80
2022-11-06T05:04:15.295Z,18.50
2022-11-06T05:09:17.794Z,17.90
2022-11-06T05:14:20.633Z,15.32
2022-11-06T05:19:22.907Z,18.10
2022-11-06T05:24:25.940Z,19.25
2022-11-06T05:29:28.393Z,18.87
2022-11-06T05:34:30.752Z,18.25
2022-11-06T05:39:35.540Z,15.52
2022-11-06T05:44:40.258Z,18.70
2022-11-06T05:49:42.457Z,16.55
2022-11-06T05:54:44.664Z,16.25
2022-11-06T05:59:47.235Z,18.98
2022-11-06T06:04:49.865Z,22.67
2022-11-06T06:09:52.842Z,19.07
2022-11-06T06:14:55.573Z,22.70
2022-11-06T06:19:58.125Z,27.70
2022-11-06T06:25:00.634Z,22.67
2022-11-06T06:30:04.870Z,20.10
2022-11-06T06:35:08.374Z,18.73
2022-11-06T06:40:11.481Z,21.45
2022-11-06T06:45:14.137Z,24.60
2022-11-06T06:50:16.433Z,25.80
2022-11-06T06:55:18.629Z,24.65
2022-11-06T07:00:21.151Z,20.75
2022-11-06T07:05:23.436Z,28.38
2022-11-06T07:10:25.662Z,21.88
2022-11-06T07:15:29.737Z,25.58
2022-11-06T07:20:33.241Z,22.55
2022-11-06T07:25:35.982Z,28.67
2022-11-06T07:30:38.340Z,23.73
2022-11-06T07:35:41.050Z,21.27
2022-11-06T07:40:43.526Z,21.93
2022-11-06T07:45:46.875Z,21.88
2022-11-06T07:50:51.131Z,21.33
2022-11-06T07:55:55.255Z,18.38
2022-11-06T08:00:58.587Z,19.05
2022-11-06T08:06:04.198Z,18.63
2022-11-06T08:11:08.758Z,17.45
2022-11-06T08:16:13.267Z,15.40
2022-11-06T08:21:15.545Z,20.55
2022-11-06T08:27:03.905Z,27.20
2022-11-06T08:32:41.108Z,24.20
2022-11-06T08:37:44.628Z,23.83
2022-11-06T08:42:47.124Z,21.83
2022-11-06T08:59:59.439Z,17.05
2022-11-06T09:05:01.665Z,15.63
2022-11-06T09:10:04.862Z,18.97
2022-11-06T09:20:10.581Z,19.95
2022-11-06T09:25:13.905Z,18.42
2022-11-06T09:30:22.600Z,18.70
2022-11-06T09:35:26.420Z,20.20
2022-11-06T09:40:33.286Z,18.55
2022-11-06T09:45:39.511Z,25.38
2022-11-06T09:51:22.038Z,15.23
2022-11-06T09:56:25.969Z,19.80
2022-11-06T10:01:37.860Z,17.75
2022-11-06T10:06:40.180Z,15.45
2022-11-06T10:12:03.511Z,15.33
2022-11-06T10:22:07.928Z,15.52
2022-11-06T10:27:25.458Z,15.93
2022-11-06T10:32:36.968Z,18.60
2022-11-06T10:38:28.238Z,21.20
2022-11-06T10:43:40.972Z,20.27
2022-11-06T10:48:49.355Z,14.37
2022-11-06T10:54:14.341Z,18.25
2022-11-06T10:59:16.803Z,65.60
2022-11-06T11:04:19.124Z,65.27
2022-11-06T11:09:32.369Z,28.45
2022-11-06T11:14:34.840Z,38.40
2022-11-06T11:19:39.241Z,35.13
2022-11-06T11:25:05.530Z,23.55
2022-11-06T11:30:20.545Z,18.05
2022-11-06T11:35:28.656Z,15.90
2022-11-06T11:40:36.076Z,18.42
2022-11-06T11:45:39.050Z,15.50
2022-11-06T11:50:41.431Z,12.57
2022-11-06T11:55:45.715Z,11.50
2022-11-06T12:00:53.870Z,9.77
2022-11-06T12:06:06.058Z,11.82
2022-11-06T12:11:14.585Z,48.33
2022-11-06T12:16:18.674Z,74.15
2022-11-06T12:21:27.842Z,53.65
2022-11-06T12:26:35.795Z,21.08
2022-11-06T12:31:44.373Z,20.35
2022-11-06T12:36:59.255Z,24.80
2022-11-06T12:42:03.150Z,17.42
2022-11-06T12:47:15.716Z,17.83
2022-11-06T12:52:29.274Z,18.73
2022-11-06T12:57:55.069Z,23.38
2022-11-06T13:03:22.615Z,16.25
2022-11-06T13:08:30.954Z,19.30
2022-11-06T13:13:55.822Z,14.25
2022-11-06T13:19:10.360Z,10.95
2022-11-06T13:24:22.633Z,11.43
2022-11-06T13:29:29.741Z,10.82
2022-11-06T13:34:35.179Z,10.45
2022-11-06T13:39:48.484Z,9.32
2022-11-06T13:44:51.119Z,11.70
2022-11-06T13:50:02.384Z,12.37
2022-11-06T13:55:53.574Z,16.70
2022-11-06T14:01:16.856Z,14.35
2022-11-06T14:06:23.537Z,27.77
2022-11-06T14:11:52.454Z,25.50
2022-11-06T14:17:50.642Z,30.60
2022-11-06T14:22:52.886Z,19.17
2022-11-06T14:33:55.023Z,15.18
2022-11-06T14:38:57.426Z,11.95
2022-11-06T14:44:06.988Z,12.05
2022-11-06T14:49:19.735Z,15.07
2022-11-06T14:54:24.558Z,14.98
2022-11-06T14:59:31.506Z,13.80
2022-11-06T15:04:35.140Z,12.93
2022-11-06T15:14:39.640Z,16.05
2022-11-06T15:19:46.880Z,14.73
2022-11-06T15:24:53.773Z,13.85
2022-11-06T15:29:58.664Z,10.68
2022-11-06T15:35:22.704Z,10.75
2022-11-06T15:40:29.424Z,11.38
2022-11-06T15:45:31.899Z,11.18
2022-11-06T15:50:36.260Z,12.10
2022-11-06T15:55:42.779Z,12.25
2022-11-06T16:00:47.246Z,10.70
2022-11-06T16:05:54.242Z,14.75
2022-11-06T16:16:00.923Z,13.18
2022-11-06T16:21:18.562Z,11.95
2022-11-06T16:26:36.477Z,16.75
2022-11-06T16:31:39.244Z,21.67
2022-11-06T16:37:03.739Z,22.73
2022-11-06T16:42:20.298Z,24.73
2022-11-06T16:47:23.524Z,23.02
2022-11-06T16:52:40.441Z,21.77
2022-11-06T16:57:55.380Z,25.70
2022-11-06T17:09:07.871Z,30.70
2022-11-06T17:15:04.860Z,28.20
2022-11-06T17:20:22.641Z,26.92
2022-11-06T17:25:31.510Z,30.98
2022-11-06T17:30:37.438Z,33.40
2022-11-06T17:35:39.706Z,29.23
2022-11-06T17:40:42.804Z,30.83
2022-11-06T17:45:49.942Z,22.67
2022-11-06T17:51:22.397Z,21.80
2022-11-06T17:56:31.877Z,24.40
2022-11-06T18:01:37.636Z,26.33
2022-11-06T18:06:40.199Z,26.85
2022-11-06T18:11:43.065Z,25.30
2022-11-06T18:16:45.710Z,23.52
2022-11-06T18:21:48.599Z,30.73
2022-11-06T18:26:51.399Z,41.37
2022-11-06T18:31:53.665Z,45.97
2022-11-06T18:36:55.994Z,52.40
2022-11-06T18:41:59.251Z,54.78
2022-11-06T18:47:01.610Z,42.47
2022-11-06T18:52:04.112Z,40.53
2022-11-06T18:57:06.349Z,39.75
2022-11-06T19:02:10.053Z,41.80
2022-11-06T19:07:12.514Z,36.63
2022-11-06T19:12:15.117Z,42.33
2022-11-06T19:17:18.389Z,35.83
2022-11-06T19:22:20.795Z,31.17
2022-11-06T19:27:23.042Z,28.25
2022-11-06T19:32:25.408Z,35.13
2022-11-06T19:37:29.372Z,24.65
2022-11-06T19:47:34.376Z,25.77
2022-11-06T19:52:58.532Z,26.80
2022-11-06T19:58:00.791Z,23.40
2022-11-06T20:03:04.722Z,21.35
2022-11-06T20:08:08.493Z,26.00
2022-11-06T20:13:11.457Z,25.80
2022-11-06T20:18:14.019Z,22.30
2022-11-06T20:23:17.632Z,26.23
2022-11-06T20:28:20.637Z,29.27
2022-11-06T20:33:23.519Z,19.23
2022-11-06T20:38:26.059Z,20.23
2022-11-06T20:43:28.427Z,23.05
2022-11-06T20:48:31.572Z,26.30
2022-11-06T20:53:35.331Z,21.83
2022-11-06T20:58:38.187Z,25.08
2022-11-06T21:03:44.577Z,25.20
2022-11-06T21:08:48.600Z,23.30
2022-11-06T21:13:53.564Z,24.00
2022-11-06T21:18:56.853Z,24.67
2022-11-06T21:24:01.243Z,24.70
2022-11-06T21:29:12.552Z,29.52
2022-11-06T21:34:19.036Z,23.85
2022-11-06T21:39:21.495Z,24.65
2022-11-06T21:44:24.005Z,25.52
2022-11-06T21:49:47.136Z,22.52
2022-11-06T21:55:14.628Z,29.00
2022-11-06T22:01:19.330Z,26.35
2022-11-06T22:06:33.858Z,26.50
2022-11-06T22:11:38.362Z,24.63
2022-11-06T22:16:42.476Z,28.92
2022-11-06T22:29:00.485Z,33.47
2022-11-06T22:34:58.497Z,65.32
2022-11-06T22:40:01.020Z,82.15
2022-11-06T22:45:03.456Z,54.42
2022-11-06T22:50:06.352Z,163.98
2022-11-06T22:55:08.796Z,71.33
2022-11-06T23:00:11.818Z,38.83
2022-11-06T23:05:14.310Z,35.92
2022-11-06T23:10:29.116Z,205.43
2022-11-06T23:15:32.590Z,198.02
2022-11-06T23:20:35.320Z,125.53
2022-11-06T23:25:38.573Z,62.97
2022-11-06T23:30:41.046Z,38.28
2022-11-06T23:35:44.119Z,32.50
2022-11-06T23:40:49.491Z,34.88
2022-11-06T23:45:52.268Z,32.45
2022-11-06T23:50:54.983Z,29.30
2022-11-06T23:56:05.496Z,32.95
